sensor_id;sensor_type;location;lat;lon;timestamp;pressure;altitude;pressure_sealevel;temperature;humidity
21203;BME280;10759;51.982;9.232;2022-11-12T00:01:57;101982.50;;;5.62;100.00
21203;BME280;10759;51.982;9.232;2022-11-12T00:04:43;101988.69;;;5.59;100.00
21203;BME280;10759;51.982;9.232;2022-11-12T00:07:30;101988.59;;;5.50;100.00
21203;BME280;10759;51.982;9.232;2022-11-12T00:10:16;101986.88;;;5.55;100.00
21203;BME280;10759;51.982;9.232;2022-11-12T00:13:04;101988.44;;;5.33;100.00
21203;BME280;10759;51.982;9.232;2022-11-12T00:15:50;101991.00;;;5.21;100.00
21203;BME280;10759;51.982;9.232;2022-11-12T00:18:38;101995.41;;;5.17;100.00
21203;BME280;10759;51.982;9.232;2022-11-12T00:21:24;101980.09;;;4.94;100.00
21203;BME280;10759;51.982;9.232;2022-11-12T00:24:11;101987.03;;;4.80;100.00
21203;BME280;10759;51.982;9.232;2022-11-12T00:26:57;102002.06;;;4.78;100.00
21203;BME280;10759;51.982;9.232;2022-11-12T00:29:44;101999.25;;;4.66;100.00
21203;BME280;10759;51.982;9.232;2022-11-12T00:32:33;102010.56;;;4.49;100.00
21203;BME280;10759;51.982;9.232;2022-11-12T00:35:22;102005.28;;;4.51;100.00
21203;BME280;10759;51.982;9.232;2022-11-12T00:38:08;101997.28;;;4.48;100.00
21203;BME280;10759;51.982;9.232;2022-11-12T00:40:58;102005.19;;;4.43;100.00
21203;BME280;10759;51.982;9.232;2022-11-12T00:43:44;102014.78;;;4.35;100.00
21203;BME280;10759;51.982;9.232;2022-11-12T00:46:30;102019.09;;;4.27;100.00
21203;BME280;10759;51.982;9.232;2022-11-12T00:49:17;102016.34;;;4.21;100.00
21203;BME280;10759;51.982;9.232;2022-11-12T00:52:05;102016.41;;;4.24;100.00
21203;BME280;10759;51.982;9.232;2022-11-12T00:54:51;102014.59;;;4.20;100.00
21203;BME280;10759;51.982;9.232;2022-11-12T00:57:37;102015.34;;;4.13;100.00
21203;BME280;10759;51.982;9.232;2022-11-12T01:00:24;102016.25;;;4.12;100.00
21203;BME280;10759;51.982;9.232;2022-11-12T01:03:11;102029.41;;;4.05;100.00
21203;BME280;10759;51.982;9.232;2022-11-12T01:06:01;102003.72;;;4.01;100.00
21203;BME280;10759;51.982;9.232;2022-11-12T01:08:49;102022.56;;;4.21;100.00
21203;BME280;10759;51.982;9.232;2022-11-12T01:11:39;102021.59;;;4.15;100.00
21203;BME280;10759;51.982;9.232;2022-11-12T01:14:26;102024.38;;;4.24;100.00
21203;BME280;10759;51.982;9.232;2022-11-12T01:17:12;102031.28;;;4.13;100.00
21203;BME280;10759;51.982;9.232;2022-11-12T01:19:58;102030.34;;;4.11;100.00
21203;BME280;10759;51.982;9.232;2022-11-12T01:22:45;102022.09;;;3.89;100.00
21203;BME280;10759;51.982;9.232;2022-11-12T01:25:36;102031.03;;;3.96;100.00
21203;BME280;10759;51.982;9.232;2022-11-12T01:28:22;102019.28;;;3.80;100.00
21203;BME280;10759;51.982;9.232;2022-11-12T01:31:12;101909.59;;;3.18;100.00
21203;BME280;10759;51.982;9.232;2022-11-12T01:34:00;102041.63;;;3.94;100.00
21203;BME280;10759;51.982;9.232;2022-11-12T01:36:47;102033.56;;;3.88;100.00
21203;BME280;10759;51.982;9.232;2022-11-12T01:39:34;101862.16;;;2.80;100.00
21203;BME280;10759;51.982;9.232;2022-11-12T01:42:25;102029.91;;;3.80;100.00
21203;BME280;10759;51.982;9.232;2022-11-12T01:45:12;102029.88;;;3.77;100.00
21203;BME280;10759;51.982;9.232;2022-11-12T01:48:01;102030.75;;;3.79;100.00
21203;BME280;10759;51.982;9.232;2022-11-12T01:50:49;102027.06;;;3.68;100.00
21203;BME280;10759;51.982;9.232;2022-11-12T01:53:39;102028.66;;;3.58;100.00
21203;BME280;10759;51.982;9.232;2022-11-12T01:56:29;102031.19;;;3.50;100.00
21203;BME280;10759;51.982;9.232;2022-11-12T01:59:20;102031.13;;;3.49;100.00
21203;BME280;10759;51.982;9.232;2022-11-12T02:02:08;102037.38;;;3.51;100.00
21203;BME280;10759;51.982;9.232;2022-11-12T02:04:55;102029.31;;;3.46;100.00
21203;BME280;10759;51.982;9.232;2022-11-12T02:07:44;101927.56;;;2.85;100.00
21203;BME280;10759;51.982;9.232;2022-11-12T02:10:33;102017.00;;;3.48;100.00
21203;BME280;10759;51.982;9.232;2022-11-12T02:13:20;101938.50;;;3.03;100.00
21203;BME280;10759;51.982;9.232;2022-11-12T02:16:27;102040.19;;;3.61;100.00
21203;BME280;10759;51.982;9.232;2022-11-12T02:19:16;102033.16;;;3.62;100.00
21203;BME280;10759;51.982;9.232;2022-11-12T02:22:04;102034.97;;;3.64;100.00
21203;BME280;10759;51.982;9.232;2022-11-12T02:24:50;102034.31;;;3.79;100.00
21203;BME280;10759;51.982;9.232;2022-11-12T02:27:37;102029.28;;;3.98;100.00
21203;BME280;10759;51.982;9.232;2022-11-12T02:30:31;102021.56;;;4.12;100.00
21203;BME280;10759;51.982;9.232;2022-11-12T02:33:18;102019.81;;;4.15;100.00
21203;BME280;10759;51.982;9.232;2022-11-12T02:36:05;102020.84;;;4.25;100.00
21203;BME280;10759;51.982;9.232;2022-11-12T02:38:53;102024.19;;;4.13;100.00
21203;BME280;10759;51.982;9.232;2022-11-12T02:41:39;102017.81;;;3.99;100.00
21203;BME280;10759;51.982;9.232;2022-11-12T02:44:26;101893.53;;;3.08;100.00
21203;BME280;10759;51.982;9.232;2022-11-12T02:47:14;102019.22;;;3.75;100.00
21203;BME280;10759;51.982;9.232;2022-11-12T02:50:00;102022.38;;;3.54;100.00
21203;BME280;10759;51.982;9.232;2022-11-12T02:52:47;101963.22;;;3.05;100.00
21203;BME280;10759;51.982;9.232;2022-11-12T02:55:35;102017.72;;;3.39;100.00
21203;BME280;10759;51.982;9.232;2022-11-12T02:58:22;102025.97;;;3.06;100.00
21203;BME280;10759;51.982;9.232;2022-11-12T03:01:09;101993.00;;;2.92;100.00
21203;BME280;10759;51.982;9.232;2022-11-12T03:03:56;102016.28;;;3.08;100.00
21203;BME280;10759;51.982;9.232;2022-11-12T03:06:43;102016.22;;;3.05;100.00
21203;BME280;10759;51.982;9.232;2022-11-12T03:09:30;102013.56;;;3.05;100.00
21203;BME280;10759;51.982;9.232;2022-11-12T03:12:18;102020.59;;;3.03;100.00
21203;BME280;10759;51.982;9.232;2022-11-12T03:15:05;102011.13;;;3.17;100.00
21203;BME280;10759;51.982;9.232;2022-11-12T03:17:52;102025.38;;;3.22;100.00
21203;BME280;10759;51.982;9.232;2022-11-12T03:20:38;102030.78;;;3.29;100.00
21203;BME280;10759;51.982;9.232;2022-11-12T03:23:26;102028.09;;;3.26;100.00
21203;BME280;10759;51.982;9.232;2022-11-12T03:26:13;102017.13;;;3.07;100.00
21203;BME280;10759;51.982;9.232;2022-11-12T03:29:00;102024.50;;;3.23;100.00
21203;BME280;10759;51.982;9.232;2022-11-12T03:31:47;102014.03;;;3.31;100.00
21203;BME280;10759;51.982;9.232;2022-11-12T03:34:34;102034.63;;;3.46;100.00
21203;BME280;10759;51.982;9.232;2022-11-12T03:37:21;102024.91;;;3.47;100.00
21203;BME280;10759;51.982;9.232;2022-11-12T03:40:08;101989.25;;;3.28;100.00
21203;BME280;10759;51.982;9.232;2022-11-12T03:42:55;101991.63;;;3.12;100.00
21203;BME280;10759;51.982;9.232;2022-11-12T03:45:43;102022.03;;;3.33;100.00
21203;BME280;10759;51.982;9.232;2022-11-12T03:48:30;102013.13;;;3.28;100.00
21203;BME280;10759;51.982;9.232;2022-11-12T03:51:17;102011.22;;;3.20;100.00
21203;BME280;10759;51.982;9.232;2022-11-12T03:54:05;102006.44;;;3.03;100.00
21203;BME280;10759;51.982;9.232;2022-11-12T03:56:51;102012.28;;;2.85;100.00
21203;BME280;10759;51.982;9.232;2022-11-12T03:59:38;102002.44;;;2.76;100.00
21203;BME280;10759;51.982;9.232;2022-11-12T04:02:26;102006.00;;;2.79;100.00
21203;BME280;10759;51.982;9.232;2022-11-12T04:05:15;102000.69;;;2.78;100.00
21203;BME280;10759;51.982;9.232;2022-11-12T04:08:21;102003.25;;;2.73;100.00
21203;BME280;10759;51.982;9.232;2022-11-12T04:11:22;102005.81;;;2.70;100.00
21203;BME280;10759;51.982;9.232;2022-11-12T04:14:09;101978.13;;;2.53;100.00
21203;BME280;10759;51.982;9.232;2022-11-12T04:16:56;101974.63;;;2.55;100.00
21203;BME280;10759;51.982;9.232;2022-11-12T04:20:01;101998.03;;;2.76;100.00
21203;BME280;10759;51.982;9.232;2022-11-12T04:23:05;101999.78;;;2.77;100.00
21203;BME280;10759;51.982;9.232;2022-11-12T04:25:52;101960.47;;;2.52;100.00
21203;BME280;10759;51.982;9.232;2022-11-12T04:28:58;101986.34;;;2.67;100.00
21203;BME280;10759;51.982;9.232;2022-11-12T04:32:02;101981.84;;;2.61;100.00
21203;BME280;10759;51.982;9.232;2022-11-12T04:34:49;101967.47;;;2.50;100.00
21203;BME280;10759;51.982;9.232;2022-11-12T04:37:37;101967.44;;;2.47;100.00
21203;BME280;10759;51.982;9.232;2022-11-12T04:40:30;101969.19;;;2.48;100.00
21203;BME280;10759;51.982;9.232;2022-11-12T04:43:34;101971.75;;;2.43;100.00
21203;BME280;10759;51.982;9.232;2022-11-12T04:46:38;102003.13;;;2.26;100.00
21203;BME280;10759;51.982;9.232;2022-11-12T04:49:24;102001.69;;;2.41;100.00
21203;BME280;10759;51.982;9.232;2022-11-12T04:52:11;102008.84;;;2.45;100.00
21203;BME280;10759;51.982;9.232;2022-11-12T04:55:00;101999.03;;;2.41;100.00
21203;BME280;10759;51.982;9.232;2022-11-12T04:57:46;102004.38;;;2.42;100.00
21203;BME280;10759;51.982;9.232;2022-11-12T05:00:33;102008.06;;;2.49;100.00
21203;BME280;10759;51.982;9.232;2022-11-12T05:03:20;101993.88;;;2.47;100.00
21203;BME280;10759;51.982;9.232;2022-11-12T05:06:07;101991.94;;;2.38;100.00
21203;BME280;10759;51.982;9.232;2022-11-12T05:09:14;102006.53;;;2.62;100.00
21203;BME280;10759;51.982;9.232;2022-11-12T05:12:02;102005.72;;;2.66;100.00
21203;BME280;10759;51.982;9.232;2022-11-12T05:14:48;101992.28;;;2.55;100.00
21203;BME280;10759;51.982;9.232;2022-11-12T05:17:35;101993.94;;;2.50;100.00
21203;BME280;10759;51.982;9.232;2022-11-12T05:20:22;102006.19;;;2.45;100.00
21203;BME280;10759;51.982;9.232;2022-11-12T05:23:09;102004.16;;;2.31;100.00
21203;BME280;10759;51.982;9.232;2022-11-12T05:25:55;101959.38;;;2.01;100.00
21203;BME280;10759;51.982;9.232;2022-11-12T05:28:43;101998.88;;;2.31;100.00
21203;BME280;10759;51.982;9.232;2022-11-12T05:31:30;101995.13;;;2.22;100.00
21203;BME280;10759;51.982;9.232;2022-11-12T05:34:17;101996.91;;;2.23;100.00
21203;BME280;10759;51.982;9.232;2022-11-12T05:37:08;101998.59;;;2.19;100.00
21203;BME280;10759;51.982;9.232;2022-11-12T05:39:55;101997.56;;;2.12;100.00
21203;BME280;10759;51.982;9.232;2022-11-12T05:42:43;101997.56;;;2.12;100.00
21203;BME280;10759;51.982;9.232;2022-11-12T05:45:31;101994.88;;;2.11;100.00
21203;BME280;10759;51.982;9.232;2022-11-12T05:48:18;101988.84;;;2.18;100.00
21203;BME280;10759;51.982;9.232;2022-11-12T05:51:08;101959.38;;;2.00;100.00
21203;BME280;10759;51.982;9.232;2022-11-12T05:53:58;101979.41;;;2.29;100.00
21203;BME280;10759;51.982;9.232;2022-11-12T05:56:45;101955.84;;;2.01;100.00
21203;BME280;10759;51.982;9.232;2022-11-12T05:59:32;101966.38;;;1.99;100.00
21203;BME280;10759;51.982;9.232;2022-11-12T06:02:20;101969.38;;;1.75;100.00
21203;BME280;10759;51.982;9.232;2022-11-12T06:05:07;101872.69;;;1.11;100.00
21203;BME280;10759;51.982;9.232;2022-11-12T06:07:54;101961.50;;;1.78;100.00
21203;BME280;10759;51.982;9.232;2022-11-12T06:10:40;101983.13;;;1.98;100.00
21203;BME280;10759;51.982;9.232;2022-11-12T06:13:27;101989.41;;;2.03;100.00
21203;BME280;10759;51.982;9.232;2022-11-12T06:16:14;101984.00;;;1.99;100.00
21203;BME280;10759;51.982;9.232;2022-11-12T06:19:01;101974.78;;;1.81;100.00
21203;BME280;10759;51.982;9.232;2022-11-12T06:21:49;102007.03;;;2.03;100.00
21203;BME280;10759;51.982;9.232;2022-11-12T06:24:36;102000.13;;;2.09;100.00
21203;BME280;10759;51.982;9.232;2022-11-12T06:27:22;101949.34;;;1.86;100.00
21203;BME280;10759;51.982;9.232;2022-11-12T06:30:09;102004.00;;;2.25;100.00
21203;BME280;10759;51.982;9.232;2022-11-12T06:32:56;101979.97;;;2.14;100.00
21203;BME280;10759;51.982;9.232;2022-11-12T06:35:44;101984.34;;;2.14;100.00
21203;BME280;10759;51.982;9.232;2022-11-12T06:38:32;102008.63;;;2.34;100.00
21203;BME280;10759;51.982;9.232;2022-11-12T06:41:19;102009.97;;;2.57;100.00
21203;BME280;10759;51.982;9.232;2022-11-12T06:44:06;102009.53;;;2.78;100.00
21203;BME280;10759;51.982;9.232;2022-11-12T06:46:52;102002.44;;;2.77;100.00
21203;BME280;10759;51.982;9.232;2022-11-12T06:49:39;102019.44;;;2.90;100.00
21203;BME280;10759;51.982;9.232;2022-11-12T06:52:27;102007.97;;;2.88;100.00
21203;BME280;10759;51.982;9.232;2022-11-12T06:55:14;102008.91;;;2.92;100.00
21203;BME280;10759;51.982;9.232;2022-11-12T06:58:01;102001.56;;;2.77;100.00
21203;BME280;10759;51.982;9.232;2022-11-12T07:00:48;102026.41;;;2.84;100.00
21203;BME280;10759;51.982;9.232;2022-11-12T07:03:35;102013.91;;;2.76;100.00
21203;BME280;10759;51.982;9.232;2022-11-12T07:06:21;102006.75;;;2.72;100.00
21203;BME280;10759;51.982;9.232;2022-11-12T07:09:10;102025.09;;;2.63;100.00
21203;BME280;10759;51.982;9.232;2022-11-12T07:11:57;102031.00;;;2.50;100.00
21203;BME280;10759;51.982;9.232;2022-11-12T07:14:43;102024.75;;;2.46;100.00
21203;BME280;10759;51.982;9.232;2022-11-12T07:17:30;102028.75;;;2.27;100.00
21203;BME280;10759;51.982;9.232;2022-11-12T07:20:17;101832.94;;;1.42;100.00
21203;BME280;10759;51.982;9.232;2022-11-12T07:23:04;102024.91;;;2.54;100.00
21203;BME280;10759;51.982;9.232;2022-11-12T07:25:56;102027.78;;;2.65;100.00
21203;BME280;10759;51.982;9.232;2022-11-12T07:28:43;102025.75;;;2.53;100.00
21203;BME280;10759;51.982;9.232;2022-11-12T07:31:30;102015.41;;;2.64;100.00
21203;BME280;10759;51.982;9.232;2022-11-12T07:34:16;102029.78;;;2.76;100.00
21203;BME280;10759;51.982;9.232;2022-11-12T07:37:03;102022.78;;;2.78;100.00
21203;BME280;10759;51.982;9.232;2022-11-12T07:39:50;102018.97;;;2.66;100.00
21203;BME280;10759;51.982;9.232;2022-11-12T07:42:37;102032.97;;;2.60;100.00
21203;BME280;10759;51.982;9.232;2022-11-12T07:45:24;101981.25;;;2.33;100.00
21203;BME280;10759;51.982;9.232;2022-11-12T07:48:11;102018.28;;;2.74;100.00
21203;BME280;10759;51.982;9.232;2022-11-12T07:51:01;102033.63;;;2.91;100.00
21203;BME280;10759;51.982;9.232;2022-11-12T07:53:49;101996.34;;;2.82;100.00
21203;BME280;10759;51.982;9.232;2022-11-12T07:56:43;102020.53;;;2.98;100.00
21203;BME280;10759;51.982;9.232;2022-11-12T07:59:31;102016.84;;;2.92;100.00
21203;BME280;10759;51.982;9.232;2022-11-12T08:02:18;102037.72;;;3.20;100.00
21203;BME280;10759;51.982;9.232;2022-11-12T08:05:05;102011.19;;;3.19;100.00
21203;BME280;10759;51.982;9.232;2022-11-12T08:08:00;102047.25;;;3.59;100.00
21203;BME280;10759;51.982;9.232;2022-11-12T08:10:47;102046.38;;;3.60;100.00
21203;BME280;10759;51.982;9.232;2022-11-12T08:13:34;102043.03;;;3.72;100.00
21203;BME280;10759;51.982;9.232;2022-11-12T08:16:22;102046.47;;;3.66;100.00
21203;BME280;10759;51.982;9.232;2022-11-12T08:19:09;102042.16;;;3.73;100.00
21203;BME280;10759;51.982;9.232;2022-11-12T08:21:55;102043.81;;;3.66;100.00
21203;BME280;10759;51.982;9.232;2022-11-12T08:24:42;102018.94;;;3.58;100.00
21203;BME280;10759;51.982;9.232;2022-11-12T08:27:29;102050.13;;;3.72;100.00
21203;BME280;10759;51.982;9.232;2022-11-12T08:30:16;101937.66;;;3.06;100.00
21203;BME280;10759;51.982;9.232;2022-11-12T08:33:04;102048.44;;;3.77;100.00
21203;BME280;10759;51.982;9.232;2022-11-12T08:35:51;102035.16;;;3.77;100.00
21203;BME280;10759;51.982;9.232;2022-11-12T08:38:38;102006.63;;;3.62;100.00
21203;BME280;10759;51.982;9.232;2022-11-12T08:41:24;102047.50;;;3.75;100.00
21203;BME280;10759;51.982;9.232;2022-11-12T08:44:11;102035.25;;;3.83;100.00
21203;BME280;10759;51.982;9.232;2022-11-12T08:46:57;102048.72;;;3.95;100.00
21203;BME280;10759;51.982;9.232;2022-11-12T08:49:46;102033.78;;;4.03;100.00
21203;BME280;10759;51.982;9.232;2022-11-12T08:52:32;102039.47;;;4.28;100.00
21203;BME280;10759;51.982;9.232;2022-11-12T08:55:19;102033.38;;;4.35;100.00
21203;BME280;10759;51.982;9.232;2022-11-12T08:58:06;102040.69;;;4.51;100.00
21203;BME280;10759;51.982;9.232;2022-11-12T09:00:56;102043.34;;;4.51;100.00
21203;BME280;10759;51.982;9.232;2022-11-12T09:03:43;102038.06;;;4.53;100.00
21203;BME280;10759;51.982;9.232;2022-11-12T09:06:31;102031.19;;;4.72;100.00
21203;BME280;10759;51.982;9.232;2022-11-12T09:09:18;102002.03;;;4.75;100.00
21203;BME280;10759;51.982;9.232;2022-11-12T09:12:05;102032.38;;;4.95;100.00
21203;BME280;10759;51.982;9.232;2022-11-12T09:15:00;102032.47;;;5.06;100.00
21203;BME280;10759;51.982;9.232;2022-11-12T09:18:10;102036.22;;;5.22;100.00
21203;BME280;10759;51.982;9.232;2022-11-12T09:21:02;102011.28;;;5.11;100.00
21203;BME280;10759;51.982;9.232;2022-11-12T09:23:50;102044.25;;;5.31;100.00
21203;BME280;10759;51.982;9.232;2022-11-12T09:26:37;102038.94;;;5.31;100.00
21203;BME280;10759;51.982;9.232;2022-11-12T09:29:24;102020.34;;;5.30;100.00
21203;BME280;10759;51.982;9.232;2022-11-12T09:32:10;101983.03;;;5.24;100.00
21203;BME280;10759;51.982;9.232;2022-11-12T09:34:57;102038.47;;;5.74;100.00
21203;BME280;10759;51.982;9.232;2022-11-12T09:37:44;102042.13;;;5.88;100.00
21203;BME280;10759;51.982;9.232;2022-11-12T09:40:43;102040.53;;;6.12;100.00
21203;BME280;10759;51.982;9.232;2022-11-12T09:43:32;102040.69;;;6.30;100.00
21203;BME280;10759;51.982;9.232;2022-11-12T09:46:36;102035.31;;;6.26;100.00
21203;BME280;10759;51.982;9.232;2022-11-12T09:49:29;102030.94;;;6.37;100.00
21203;BME280;10759;51.982;9.232;2022-11-12T09:52:20;102028.31;;;6.46;100.00
21203;BME280;10759;51.982;9.232;2022-11-12T09:55:16;102022.19;;;6.61;100.00
21203;BME280;10759;51.982;9.232;2022-11-12T09:58:10;102010.69;;;6.70;100.00
21203;BME280;10759;51.982;9.232;2022-11-12T10:01:00;102022.28;;;6.87;100.00
21203;BME280;10759;51.982;9.232;2022-11-12T10:03:55;102024.97;;;6.90;100.00
21203;BME280;10759;51.982;9.232;2022-11-12T10:06:50;102024.13;;;7.09;100.00
21203;BME280;10759;51.982;9.232;2022-11-12T10:09:46;102019.72;;;7.25;100.00
21203;BME280;10759;51.982;9.232;2022-11-12T10:12:47;102010.84;;;7.26;100.00
21203;BME280;10759;51.982;9.232;2022-11-12T10:15:51;102012.63;;;7.32;100.00
21203;BME280;10759;51.982;9.232;2022-11-12T10:19:22;102019.75;;;7.44;100.00
21203;BME280;10759;51.982;9.232;2022-11-12T10:22:21;102017.97;;;7.55;100.00
21203;BME280;10759;51.982;9.232;2022-11-12T10:25:14;102020.66;;;7.69;100.00
21203;BME280;10759;51.982;9.232;2022-11-12T10:28:11;102008.22;;;7.80;100.00
21203;BME280;10759;51.982;9.232;2022-11-12T10:31:09;102008.19;;;8.00;100.00
21203;BME280;10759;51.982;9.232;2022-11-12T10:34:10;102009.03;;;8.08;100.00
21203;BME280;10759;51.982;9.232;2022-11-12T10:37:01;102009.00;;;8.19;100.00
21203;BME280;10759;51.982;9.232;2022-11-12T10:39:50;102019.69;;;8.21;100.00
21203;BME280;10759;51.982;9.232;2022-11-12T10:42:55;102015.25;;;8.32;100.00
21203;BME280;10759;51.982;9.232;2022-11-12T10:45:43;102009.00;;;8.27;100.00
21203;BME280;10759;51.982;9.232;2022-11-12T10:48:31;102024.13;;;8.35;100.00
21203;BME280;10759;51.982;9.232;2022-11-12T10:51:23;101989.38;;;8.38;100.00
21203;BME280;10759;51.982;9.232;2022-11-12T10:54:28;101984.94;;;8.41;100.00
21203;BME280;10759;51.982;9.232;2022-11-12T10:57:19;101930.69;;;8.15;100.00
21203;BME280;10759;51.982;9.232;2022-11-12T11:00:14;101993.78;;;8.64;100.00
21203;BME280;10759;51.982;9.232;2022-11-12T11:03:05;102004.38;;;8.82;100.00
21203;BME280;10759;51.982;9.232;2022-11-12T11:05:55;102006.03;;;9.00;100.00
21203;BME280;10759;51.982;9.232;2022-11-12T11:08:43;101986.53;;;8.85;100.00
21203;BME280;10759;51.982;9.232;2022-11-12T11:11:31;102006.88;;;9.12;100.00
21203;BME280;10759;51.982;9.232;2022-11-12T11:14:25;102003.25;;;9.22;100.00
21203;BME280;10759;51.982;9.232;2022-11-12T11:17:16;102001.41;;;9.33;100.00
21203;BME280;10759;51.982;9.232;2022-11-12T11:20:03;101964.03;;;9.19;100.00
21203;BME280;10759;51.982;9.232;2022-11-12T11:22:55;101974.72;;;9.26;100.00
21203;BME280;10759;51.982;9.232;2022-11-12T11:25:42;101995.09;;;9.39;100.00
21203;BME280;10759;51.982;9.232;2022-11-12T11:28:37;101993.16;;;9.61;100.00
21203;BME280;10759;51.982;9.232;2022-11-12T11:31:34;101986.88;;;9.65;100.00
21203;BME280;10759;51.982;9.232;2022-11-12T11:34:35;101993.97;;;9.72;100.00
21203;BME280;10759;51.982;9.232;2022-11-12T11:37:29;101974.31;;;9.75;100.00
21203;BME280;10759;51.982;9.232;2022-11-12T11:40:24;101936.03;;;9.63;100.00
21203;BME280;10759;51.982;9.232;2022-11-12T11:43:30;101958.09;;;9.88;100.00
21203;BME280;10759;51.982;9.232;2022-11-12T11:46:43;101968.66;;;10.01;100.00
21203;BME280;10759;51.982;9.232;2022-11-12T11:52:50;101962.22;;;10.22;100.00
21203;BME280;10759;51.982;9.232;2022-11-12T11:55:47;101948.91;;;10.13;100.00
21203;BME280;10759;51.982;9.232;2022-11-12T12:02:36;101951.91;;;10.62;100.00
21203;BME280;10759;51.982;9.232;2022-11-12T12:05:38;101943.88;;;10.61;100.00
21203;BME280;10759;51.982;9.232;2022-11-12T12:08:33;101929.41;;;10.74;100.00
21203;BME280;10759;51.982;9.232;2022-11-12T12:11:28;101943.53;;;10.85;100.00
21203;BME280;10759;51.982;9.232;2022-11-12T12:14:28;101935.53;;;10.84;100.00
21203;BME280;10759;51.982;9.232;2022-11-12T12:17:31;101939.84;;;10.92;100.00
21203;BME280;10759;51.982;9.232;2022-11-12T12:20:24;101919.22;;;10.98;100.00
21203;BME280;10759;51.982;9.232;2022-11-12T12:23:22;101924.63;;;10.96;100.00
21203;BME280;10759;51.982;9.232;2022-11-12T12:26:13;101927.25;;;11.01;100.00
21203;BME280;10759;51.982;9.232;2022-11-12T12:29:05;101903.41;;;10.81;100.00
21203;BME280;10759;51.982;9.232;2022-11-12T12:31:58;101933.50;;;11.00;100.00
21203;BME280;10759;51.982;9.232;2022-11-12T12:34:49;101921.75;;;11.08;100.00
21203;BME280;10759;51.982;9.232;2022-11-12T12:37:44;101908.34;;;11.08;100.00
21203;BME280;10759;51.982;9.232;2022-11-12T12:40:33;101884.31;;;10.99;100.00
21203;BME280;10759;51.982;9.232;2022-11-12T12:43:23;101911.63;;;11.24;100.00
21203;BME280;10759;51.982;9.232;2022-11-12T12:46:16;101875.47;;;10.94;100.00
21203;BME280;10759;51.982;9.232;2022-11-12T12:49:05;101908.88;;;11.30;100.00
21203;BME280;10759;51.982;9.232;2022-11-12T12:51:52;101906.00;;;11.41;100.00
21203;BME280;10759;51.982;9.232;2022-11-12T12:54:56;101898.88;;;11.37;100.00
21203;BME280;10759;51.982;9.232;2022-11-12T12:57:44;101888.25;;;11.32;100.00
21203;BME280;10759;51.982;9.232;2022-11-12T13:00:38;101899.72;;;11.42;100.00
21203;BME280;10759;51.982;9.232;2022-11-12T13:03:49;101890.75;;;11.45;100.00
21203;BME280;10759;51.982;9.232;2022-11-12T13:06:37;101894.09;;;11.56;100.00
21203;BME280;10759;51.982;9.232;2022-11-12T13:09:25;101873.69;;;11.46;100.00
21203;BME280;10759;51.982;9.232;2022-11-12T13:12:15;101883.47;;;11.50;100.00
21203;BME280;10759;51.982;9.232;2022-11-12T13:15:13;101886.16;;;11.50;100.00
21203;BME280;10759;51.982;9.232;2022-11-12T13:18:00;101882.63;;;11.48;100.00
21203;BME280;10759;51.982;9.232;2022-11-12T13:21:08;101887.13;;;11.46;100.00
21203;BME280;10759;51.982;9.232;2022-11-12T13:24:01;101889.78;;;11.47;100.00
21203;BME280;10759;51.982;9.232;2022-11-12T13:26:56;101838.28;;;11.25;100.00
21203;BME280;10759;51.982;9.232;2022-11-12T13:29:45;101862.31;;;11.31;100.00
21203;BME280;10759;51.982;9.232;2022-11-12T13:32:34;101887.13;;;11.46;100.00
21203;BME280;10759;51.982;9.232;2022-11-12T13:35:29;101878.28;;;11.39;100.00
21203;BME280;10759;51.982;9.232;2022-11-12T13:38:19;101889.72;;;11.50;100.00
21203;BME280;10759;51.982;9.232;2022-11-12T13:41:12;101886.41;;;11.34;100.00
21203;BME280;10759;51.982;9.232;2022-11-12T13:44:03;101888.44;;;11.22;100.00
21203;BME280;10759;51.982;9.232;2022-11-12T13:46:52;101884.94;;;11.16;100.00
21203;BME280;10759;51.982;9.232;2022-11-12T13:49:40;101876.28;;;11.01;100.00
21203;BME280;10759;51.982;9.232;2022-11-12T13:52:28;101881.66;;;10.99;100.00
21203;BME280;10759;51.982;9.232;2022-11-12T13:55:18;101887.81;;;11.06;100.00
21203;BME280;10759;51.982;9.232;2022-11-12T13:58:15;101858.56;;;10.87;100.00
21203;BME280;10759;51.982;9.232;2022-11-12T14:01:04;101882.50;;;11.03;100.00
21203;BME280;10759;51.982;9.232;2022-11-12T14:03:51;101877.34;;;10.87;100.00
21203;BME280;10759;51.982;9.232;2022-11-12T14:06:41;101808.31;;;10.43;100.00
21203;BME280;10759;51.982;9.232;2022-11-12T14:09:34;101874.09;;;10.68;100.00
21203;BME280;10759;51.982;9.232;2022-11-12T14:15:56;101855.69;;;10.42;100.00
21203;BME280;10759;51.982;9.232;2022-11-12T14:19:04;101867.31;;;10.41;100.00
21203;BME280;10759;51.982;9.232;2022-11-12T14:21:58;101869.19;;;10.33;100.00
21203;BME280;10759;51.982;9.232;2022-11-12T14:24:46;101807.19;;;9.91;100.00
21203;BME280;10759;51.982;9.232;2022-11-12T14:27:37;101865.81;;;10.17;100.00
21203;BME280;10759;51.982;9.232;2022-11-12T14:30:25;101848.19;;;9.99;100.00
21203;BME280;10759;51.982;9.232;2022-11-12T14:33:17;101840.22;;;9.92;100.00
21203;BME280;10759;51.982;9.232;2022-11-12T14:36:10;101860.72;;;9.97;100.00
21203;BME280;10759;51.982;9.232;2022-11-12T14:38:58;101848.19;;;9.96;100.00
21203;BME280;10759;51.982;9.232;2022-11-12T14:41:45;101854.53;;;9.89;100.00
21203;BME280;10759;51.982;9.232;2022-11-12T14:44:35;101857.22;;;9.89;100.00
21203;BME280;10759;51.982;9.232;2022-11-12T14:47:23;101835.09;;;9.73;100.00
21203;BME280;10759;51.982;9.232;2022-11-12T14:50:13;101860.16;;;9.66;100.00
21203;BME280;10759;51.982;9.232;2022-11-12T14:53:04;101853.09;;;9.57;100.00
21203;BME280;10759;51.982;9.232;2022-11-12T14:55:53;101853.22;;;9.46;100.00
21203;BME280;10759;51.982;9.232;2022-11-12T14:58:41;101861.19;;;9.51;100.00